Time;durP1;ratioP1;P1;durP2;ratioP2;P2;SDS_P1;SDS_P2;PMS_P1;PMS_P2;Temp;Humidity;BMP_temperature;BMP_pressure;BME280_temperature;BME280_humidity;BME280_pressure;Samples;Min_cycle;Max_cycle;Signal;HPM_P1;HPM_P2
2022/06/23 00:02:21;;;;;;;;;;;29.10;77.80;;;;;;5107119;28;19930;-79
2022/06/23 00:04:50;;;;;;;;;;;29.00;77.80;;;;;;5085670;28;20017;-80
2022/06/23 00:07:26;;;;;;;;;;;29.00;77.90;;;;;;5070882;28;20405;-80
2022/06/23 00:09:54;;;;;;;;;;;29.00;78.20;;;;;;5056197;28;20393;-79
2022/06/23 00:12:24;;;;;;;;;;;29.00;78.10;;;;;;5062580;28;19923;-79
2022/06/23 00:15:01;;;;;;;;;;;29.10;78.30;;;;;;5108237;28;20076;-79
2022/06/23 00:17:31;;;;;;;;;;;29.10;78.30;;;;;;5101756;28;19928;-79
2022/06/23 00:20:00;;;;;;;;;;;29.10;78.40;;;;;;5078543;28;19985;-79
2022/06/23 00:22:30;;;;;;;;;;;29.10;78.10;;;;;;5069846;28;19924;-79
2022/06/23 00:25:00;;;;;;;;;;;29.10;78.10;;;;;;5070199;28;19928;-78
2022/06/23 00:27:32;;;;;;;;;;;29.10;78.20;;;;;;5086844;28;20363;-79
2022/06/23 00:30:02;;;;;;;;;;;29.10;78.00;;;;;;5087246;28;19927;-79
2022/06/23 00:32:30;;;;;;;;;;;29.10;77.90;;;;;;5070532;28;20654;-79
2022/06/23 00:35:06;;;;;;;;;;;29.10;78.00;;;;;;5085894;28;20419;-79
2022/06/23 00:37:34;;;;;;;;;;;29.10;78.40;;;;;;5103705;28;19924;-79
2022/06/23 00:40:05;;;;;;;;;;;29.00;78.60;;;;;;5086876;28;19935;-79
2022/06/23 00:43:01;;;;;;;;;;;29.00;78.60;;;;;;5087792;28;19938;-78
2022/06/23 00:45:39;;;;;;;;;;;28.90;78.60;;;;;;5070354;28;20022;-78
2022/06/23 00:48:12;;;;;;;;;;;29.00;78.70;;;;;;5087256;28;20433;-79
2022/06/23 00:51:00;;;;;;;;;;;29.00;78.80;;;;;;5102005;28;19935;-79
2022/06/23 00:53:37;;;;;;;;;;;28.90;78.90;;;;;;5087117;28;20328;-79
2022/06/23 00:56:19;;;;;;;;;;;28.90;79.20;;;;;;5106320;28;19920;-79
2022/06/23 00:58:50;;;;;;;;;;;28.80;79.40;;;;;;5086434;28;20393;-78
2022/06/23 01:01:23;;;;;;;;;;;28.80;79.30;;;;;;5104113;28;20097;-79
2022/06/23 01:04:19;;;;;;;;;;;28.80;79.30;;;;;;5088356;28;20012;-79
2022/06/23 01:06:55;;;;;;;;;;;28.70;79.40;;;;;;5095694;28;19923;-79
2022/06/23 01:09:31;;;;;;;;;;;28.70;79.30;;;;;;5090554;28;19923;-79
2022/06/23 01:12:01;;;;;;;;;;;28.70;79.10;;;;;;5091388;28;19924;-79
2022/06/23 01:14:34;;;;;;;;;;;28.60;78.80;;;;;;5070176;28;20011;-79
2022/06/23 01:17:02;;;;;;;;;;;28.60;79.00;;;;;;5083606;28;19924;-80
2022/06/23 01:19:48;;;;;;;;;;;28.50;79.10;;;;;;5086925;28;20004;-79
2022/06/23 01:22:39;;;;;;;;;;;28.50;79.20;;;;;;5111004;28;19975;-79
2022/06/23 01:25:26;;;;;;;;;;;28.40;79.20;;;;;;5095220;28;20331;-81
2022/06/23 01:28:00;;;;;;;;;;;28.40;79.40;;;;;;5092195;28;19920;-80
2022/06/23 01:30:30;;;;;;;;;;;28.40;79.70;;;;;;5112523;28;19920;-80
2022/06/23 01:33:07;;;;;;;;;;;28.30;79.70;;;;;;5112197;28;19932;-78
2022/06/23 01:35:39;;;;;;;;;;;28.30;79.90;;;;;;5111968;28;19927;-78
2022/06/23 01:38:20;;;;;;;;;;;28.30;80.00;;;;;;5113446;28;20041;-78
2022/06/23 01:40:51;;;;;;;;;;;28.30;80.00;;;;;;5077622;28;19924;-79
2022/06/23 01:43:18;;;;;;;;;;;28.20;80.10;;;;;;5112227;28;20487;-79
2022/06/23 01:45:55;;;;;;;;;;;28.20;80.20;;;;;;5111790;28;20026;-78
2022/06/23 01:48:52;;;;;;;;;;;28.10;80.20;;;;;;5111848;28;20026;-78
2022/06/23 01:51:29;;;;;;;;;;;28.00;80.90;;;;;;5112746;28;20022;-78
2022/06/23 01:54:08;;;;;;;;;;;28.00;80.50;;;;;;5111684;28;19923;-79
2022/06/23 01:56:43;;;;;;;;;;;28.10;80.80;;;;;;5094943;28;19923;-78
2022/06/23 01:59:31;;;;;;;;;;;28.00;80.90;;;;;;5111397;28;19920;-78
2022/06/23 02:02:12;;;;;;;;;;;28.00;81.10;;;;;;5111817;28;20026;-78
2022/06/23 02:04:48;;;;;;;;;;;28.10;81.20;;;;;;5112810;28;19919;-78
2022/06/23 02:07:19;;;;;;;;;;;28.10;81.10;;;;;;5111839;28;19920;-78
2022/06/23 02:09:48;;;;;;;;;;;28.00;81.00;;;;;;5111153;28;19919;-78
2022/06/23 02:12:32;;;;;;;;;;;28.00;81.10;;;;;;5111195;28;20018;-78
2022/06/23 02:15:08;;;;;;;;;;;27.90;81.30;;;;;;5094041;28;20042;-78
2022/06/23 02:17:39;;;;;;;;;;;27.80;81.60;;;;;;5111662;28;20369;-78
2022/06/23 02:20:35;;;;;;;;;;;27.70;81.70;;;;;;5094765;28;20014;-80
2022/06/23 02:23:24;;;;;;;;;;;27.70;81.90;;;;;;5097121;28;19959;-78
2022/06/23 02:25:55;;;;;;;;;;;27.60;82.10;;;;;;5094288;28;20365;-78
2022/06/23 02:28:23;;;;;;;;;;;27.50;82.20;;;;;;5109477;28;19924;-78
2022/06/23 02:30:59;;;;;;;;;;;27.40;82.30;;;;;;5093696;28;19924;-78
2022/06/23 02:33:32;;;;;;;;;;;27.30;82.60;;;;;;5092888;28;19951;-78
2022/06/23 02:36:19;;;;;;;;;;;27.20;82.70;;;;;;5109796;28;19920;-78
2022/06/23 02:38:57;;;;;;;;;;;27.20;82.90;;;;;;5111768;28;19920;-78
2022/06/23 02:41:25;;;;;;;;;;;27.20;82.80;;;;;;5093895;28;19930;-78
2022/06/23 02:43:59;;;;;;;;;;;27.20;82.70;;;;;;5111700;28;20006;-78
2022/06/23 02:46:26;;;;;;;;;;;27.20;82.80;;;;;;5093235;28;20350;-78
2022/06/23 02:48:57;;;;;;;;;;;27.10;82.90;;;;;;5110128;28;20422;-78
2022/06/23 02:51:34;;;;;;;;;;;27.00;82.90;;;;;;5093953;28;19920;-78
2022/06/23 02:54:07;;;;;;;;;;;27.00;83.00;;;;;;5109535;28;20026;-78
2022/06/23 02:56:46;;;;;;;;;;;27.00;82.80;;;;;;5110175;28;19963;-78
2022/06/23 02:59:17;;;;;;;;;;;27.00;82.40;;;;;;5110235;28;19923;-78
2022/06/23 03:01:47;;;;;;;;;;;26.90;81.90;;;;;;5103264;28;19924;-78
2022/06/23 03:04:23;;;;;;;;;;;26.70;81.60;;;;;;5109534;28;19928;-78
2022/06/23 03:07:07;;;;;;;;;;;26.60;81.80;;;;;;5093257;28;19923;-78
2022/06/23 03:09:40;;;;;;;;;;;26.60;81.40;;;;;;5092859;28;19928;-78
2022/06/23 03:12:18;;;;;;;;;;;26.60;80.90;;;;;;5110488;28;20029;-79
2022/06/23 03:14:55;;;;;;;;;;;26.50;80.40;;;;;;5092909;28;20330;-79
2022/06/23 03:17:26;;;;;;;;;;;26.50;80.50;;;;;;5093596;28;19924;-79
2022/06/23 03:19:57;;;;;;;;;;;26.50;80.90;;;;;;5110075;28;19923;-79
2022/06/23 03:22:29;;;;;;;;;;;26.60;80.60;;;;;;5111368;28;19959;-79
2022/06/23 03:24:59;;;;;;;;;;;26.60;80.40;;;;;;5110871;28;19927;-79
2022/06/23 03:27:30;;;;;;;;;;;26.60;80.30;;;;;;5109961;28;19920;-80
2022/06/23 03:30:05;;;;;;;;;;;26.60;80.20;;;;;;5110049;28;19919;-79
2022/06/23 03:32:39;;;;;;;;;;;26.60;80.10;;;;;;5108992;28;20007;-79
2022/06/23 03:35:25;;;;;;;;;;;26.60;79.80;;;;;;5108572;28;20033;-79
2022/06/23 03:38:14;;;;;;;;;;;26.60;79.80;;;;;;5109485;28;20018;-80
2022/06/23 03:43:31;;;;;;;;;;;26.80;79.50;;;;;;5090929;28;20057;-79
2022/06/23 03:46:11;;;;;;;;;;;26.90;79.20;;;;;;5071864;28;19928;-79
2022/06/23 03:48:45;;;;;;;;;;;27.00;79.20;;;;;;5089140;28;20454;-79
2022/06/23 03:51:18;;;;;;;;;;;27.00;79.10;;;;;;5088621;28;20022;-79
2022/06/23 03:54:06;;;;;;;;;;;27.00;79.00;;;;;;5072232;28;20565;-79
2022/06/23 03:56:42;;;;;;;;;;;27.10;78.80;;;;;;5090095;28;20022;-79
2022/06/23 03:59:12;;;;;;;;;;;27.20;78.70;;;;;;5105200;28;20014;-79
2022/06/23 04:01:44;;;;;;;;;;;27.20;78.70;;;;;;5055762;28;19920;-79
2022/06/23 04:04:14;;;;;;;;;;;27.30;78.60;;;;;;5054676;28;19924;-79
2022/06/23 04:06:42;;;;;;;;;;;27.40;78.80;;;;;;5089027;28;19951;-79
2022/06/23 04:09:10;;;;;;;;;;;27.50;78.70;;;;;;5088935;28;20006;-79
2022/06/23 04:12:00;;;;;;;;;;;27.60;78.20;;;;;;5088608;28;19973;-79
2022/06/23 04:14:28;;;;;;;;;;;27.60;78.00;;;;;;5083242;28;20014;-78
2022/06/23 04:17:04;;;;;;;;;;;27.60;78.10;;;;;;5054789;28;19962;-78
2022/06/23 04:19:33;;;;;;;;;;;27.60;78.30;;;;;;5090341;28;19944;-77
2022/06/23 04:22:04;;;;;;;;;;;27.50;78.70;;;;;;5105407;28;19924;-79
2022/06/23 04:24:32;;;;;;;;;;;27.50;79.10;;;;;;5071941;28;19924;-78
2022/06/23 04:27:05;;;;;;;;;;;27.40;79.20;;;;;;5104559;28;20456;-79
2022/06/23 04:29:36;;;;;;;;;;;27.30;79.70;;;;;;5089617;28;20004;-79
2022/06/23 04:32:09;;;;;;;;;;;27.10;80.60;;;;;;5089659;28;20458;-79
2022/06/23 04:34:42;;;;;;;;;;;26.90;81.30;;;;;;5088511;28;20312;-78
2022/06/23 04:37:21;;;;;;;;;;;26.90;81.80;;;;;;5102270;28;19923;-79
2022/06/23 04:39:53;;;;;;;;;;;26.90;81.80;;;;;;5108846;28;20267;-79
2022/06/23 04:42:26;;;;;;;;;;;27.00;81.40;;;;;;5091927;28;19973;-78
2022/06/23 04:44:55;;;;;;;;;;;27.00;80.90;;;;;;5109849;28;19924;-79
2022/06/23 04:47:24;;;;;;;;;;;27.10;80.60;;;;;;5109199;28;19939;-79
2022/06/23 04:49:56;;;;;;;;;;;27.00;80.10;;;;;;5110196;28;19958;-79
2022/06/23 04:52:34;;;;;;;;;;;27.20;80.10;;;;;;5110080;28;19924;-79
2022/06/23 04:55:01;;;;;;;;;;;27.30;79.90;;;;;;5110241;28;19924;-79
2022/06/23 04:57:33;;;;;;;;;;;27.30;79.80;;;;;;5113113;28;19923;-79
2022/06/23 05:00:01;;;;;;;;;;;27.40;79.60;;;;;;5114362;28;19923;-79
2022/06/23 05:02:49;;;;;;;;;;;27.50;79.30;;;;;;5097881;28;19934;-80
2022/06/23 05:05:18;;;;;;;;;;;27.60;79.80;;;;;;5115486;28;19930;-79
2022/06/23 05:07:50;;;;;;;;;;;27.70;80.00;;;;;;5114620;28;19946;-80
2022/06/23 05:10:23;;;;;;;;;;;27.80;79.70;;;;;;5097533;28;19927;-79
2022/06/23 05:12:54;;;;;;;;;;;28.00;79.60;;;;;;5115548;28;20430;-79
2022/06/23 05:15:26;;;;;;;;;;;28.40;79.50;;;;;;5096771;28;19926;-79
2022/06/23 05:18:26;;;;;;;;;;;28.70;79.20;;;;;;5114485;28;19949;-79
2022/06/23 05:21:04;;;;;;;;;;;29.00;79.30;;;;;;5080923;28;20023;-79
2022/06/23 05:23:40;;;;;;;;;;;29.30;79.60;;;;;;5112815;28;19971;-80
2022/06/23 05:26:27;;;;;;;;;;;29.50;79.90;;;;;;5113202;28;19924;-80
2022/06/23 05:28:58;;;;;;;;;;;29.80;81.00;;;;;;5083053;28;19920;-79
2022/06/23 05:31:29;;;;;;;;;;;30.00;81.50;;;;;;5096573;28;19920;-80
2022/06/23 05:34:00;;;;;;;;;;;30.20;81.40;;;;;;5096481;28;19984;-78
2022/06/23 05:36:31;;;;;;;;;;;30.40;80.90;;;;;;5113538;28;19919;-79
2022/06/23 05:39:01;;;;;;;;;;;30.60;79.90;;;;;;5113859;28;20352;-80
2022/06/23 05:41:36;;;;;;;;;;;30.70;79.20;;;;;;5080346;28;20426;-81
2022/06/23 05:44:07;;;;;;;;;;;30.90;79.20;;;;;;5113909;28;20332;-80
2022/06/23 05:46:40;;;;;;;;;;;31.00;79.30;;;;;;5113484;28;19949;-80
2022/06/23 05:49:13;;;;;;;;;;;31.30;78.40;;;;;;5114527;28;20372;-79
2022/06/23 05:51:46;;;;;;;;;;;31.40;77.70;;;;;;5113920;28;19927;-78
2022/06/23 05:54:26;;;;;;;;;;;31.60;78.20;;;;;;5112869;28;19976;-79
2022/06/23 05:57:00;;;;;;;;;;;31.80;78.60;;;;;;5112952;28;19927;-79
2022/06/23 05:59:49;;;;;;;;;;;31.90;76.60;;;;;;5114426;28;19928;-79
2022/06/23 06:02:24;;;;;;;;;;;31.90;75.80;;;;;;5114379;28;19931;-79
2022/06/23 06:04:53;;;;;;;;;;;32.10;75.70;;;;;;5113860;28;20303;-79
2022/06/23 06:07:22;;;;;;;;;;;32.20;75.20;;;;;;5095671;28;20404;-79
2022/06/23 06:09:51;;;;;;;;;;;32.40;74.60;;;;;;5113370;28;20030;-79
2022/06/23 06:12:25;;;;;;;;;;;32.50;74.20;;;;;;5113073;28;20385;-79
2022/06/23 06:15:08;;;;;;;;;;;32.60;73.80;;;;;;5114171;28;19926;-82
2022/06/23 06:17:36;;;;;;;;;;;32.70;72.70;;;;;;5112391;28;19923;-79
2022/06/23 06:20:06;;;;;;;;;;;32.90;73.00;;;;;;5113210;28;19919;-79
2022/06/23 06:22:52;;;;;;;;;;;33.00;73.30;;;;;;5110282;28;19926;-78
2022/06/23 06:25:22;;;;;;;;;;;33.10;73.80;;;;;;5114436;28;19932;-80
2022/06/23 06:27:50;;;;;;;;;;;33.30;71.80;;;;;;5112979;28;19923;-79
2022/06/23 06:30:19;;;;;;;;;;;33.40;71.90;;;;;;5096119;28;19976;-80
2022/06/23 06:32:46;;;;;;;;;;;33.50;71.80;;;;;;5112709;28;19923;-80
2022/06/23 06:35:24;;;;;;;;;;;33.60;70.80;;;;;;5112339;28;20366;-79
2022/06/23 06:37:54;;;;;;;;;;;33.40;69.00;;;;;;5112608;28;19924;-80
2022/06/23 06:40:22;;;;;;;;;;;33.00;69.40;;;;;;5113557;28;19950;-77
2022/06/23 06:42:53;;;;;;;;;;;33.10;69.20;;;;;;5112335;28;20010;-78
2022/06/23 06:45:25;;;;;;;;;;;33.10;68.30;;;;;;5095694;28;19920;-79
2022/06/23 06:47:53;;;;;;;;;;;33.00;68.60;;;;;;5095228;28;19971;-79
2022/06/23 06:50:36;;;;;;;;;;;32.90;69.30;;;;;;5129501;27;19984;-79
2022/06/23 06:53:23;;;;;;;;;;;33.00;70.00;;;;;;5095526;28;20274;-79
2022/06/23 06:55:52;;;;;;;;;;;33.00;70.00;;;;;;5111892;28;19928;-79
2022/06/23 06:58:25;;;;;;;;;;;33.10;69.10;;;;;;5112590;28;20370;-79
2022/06/23 07:00:59;;;;;;;;;;;33.30;69.30;;;;;;5095435;28;19930;-78
2022/06/23 07:03:27;;;;;;;;;;;33.60;69.30;;;;;;5112247;28;19966;-78
2022/06/23 07:05:59;;;;;;;;;;;33.70;68.80;;;;;;5111229;28;19959;-78
2022/06/23 07:08:33;;;;;;;;;;;33.80;68.70;;;;;;5092221;28;20374;-77
2022/06/23 07:11:21;;;;;;;;;;;33.80;68.30;;;;;;5111566;28;19976;-75
2022/06/23 07:13:54;;;;;;;;;;;33.90;68.40;;;;;;5100808;28;20038;-75
2022/06/23 07:16:22;;;;;;;;;;;34.10;68.70;;;;;;5112585;28;19924;-76
2022/06/23 07:18:53;;;;;;;;;;;34.30;68.90;;;;;;5092452;28;20039;-75
2022/06/23 07:21:27;;;;;;;;;;;34.40;68.10;;;;;;5094127;28;19931;-75
2022/06/23 07:23:57;;;;;;;;;;;34.40;67.80;;;;;;5078038;28;19965;-76
2022/06/23 07:26:32;;;;;;;;;;;34.60;69.40;;;;;;5111166;28;19973;-76
2022/06/23 07:29:26;;;;;;;;;;;34.80;68.90;;;;;;5112301;28;19975;-76
2022/06/23 07:32:11;;;;;;;;;;;34.70;68.70;;;;;;5108480;28;20018;-76
2022/06/23 07:34:44;;;;;;;;;;;34.90;68.90;;;;;;5111289;28;20030;-76
2022/06/23 07:37:24;;;;;;;;;;;35.00;69.30;;;;;;5112019;28;20366;-75
2022/06/23 07:39:55;;;;;;;;;;;35.20;68.80;;;;;;5110479;28;20068;-76
2022/06/23 07:42:35;;;;;;;;;;;35.30;68.50;;;;;;5111320;28;19976;-76
2022/06/23 07:45:09;;;;;;;;;;;35.40;67.70;;;;;;5111386;28;19973;-75
2022/06/23 07:47:37;;;;;;;;;;;35.50;67.50;;;;;;5111370;28;19923;-76
2022/06/23 07:50:04;;;;;;;;;;;35.50;66.00;;;;;;5076998;28;19967;-76
2022/06/23 07:52:32;;;;;;;;;;;35.60;66.50;;;;;;5110680;28;19923;-76
2022/06/23 07:55:00;;;;;;;;;;;35.70;66.10;;;;;;5092151;28;19927;-76
2022/06/23 07:57:29;;;;;;;;;;;35.80;65.90;;;;;;5110323;28;19927;-75
2022/06/23 08:00:00;;;;;;;;;;;35.60;65.80;;;;;;5112211;28;19927;-77
2022/06/23 08:03:00;;;;;;;;;;;35.80;66.00;;;;;;5109808;28;19977;-77
2022/06/23 08:05:34;;;;;;;;;;;36.00;66.00;;;;;;5077098;28;20041;-76
2022/06/23 08:08:02;;;;;;;;;;;36.10;65.20;;;;;;5111966;28;19945;-76
2022/06/23 08:10:31;;;;;;;;;;;36.10;66.10;;;;;;5111998;28;19928;-77
2022/06/23 08:13:08;;;;;;;;;;;36.30;66.20;;;;;;5110553;28;19920;-77
2022/06/23 08:18:47;;;;;;;;;;;36.50;66.10;;;;;;5112005;28;20300;-77
2022/06/23 08:21:17;;;;;;;;;;;36.70;65.10;;;;;;5093896;28;19923;-77
2022/06/23 08:23:50;;;;;;;;;;;36.60;64.70;;;;;;5093490;28;19980;-77
2022/06/23 08:26:21;;;;;;;;;;;36.80;65.40;;;;;;5093793;28;19989;-76
2022/06/23 08:28:53;;;;;;;;;;;36.60;64.80;;;;;;5093520;28;19920;-77
2022/06/23 08:31:21;;;;;;;;;;;36.70;65.30;;;;;;5109905;28;19938;-77
2022/06/23 08:33:59;;;;;;;;;;;36.80;65.00;;;;;;5078117;28;20350;-76
2022/06/23 08:36:39;;;;;;;;;;;36.80;64.70;;;;;;5110138;28;20432;-77
2022/06/23 08:39:11;;;;;;;;;;;36.90;64.10;;;;;;5110010;28;20424;-76
2022/06/23 08:41:44;;;;;;;;;;;36.90;64.00;;;;;;5076925;28;19930;-77
2022/06/23 08:44:34;;;;;;;;;;;37.00;63.60;;;;;;5096043;28;19923;-76
2022/06/23 08:47:20;;;;;;;;;;;37.10;63.40;;;;;;5111185;28;19961;-77
2022/06/23 08:50:00;;;;;;;;;;;37.20;62.80;;;;;;5093495;28;20014;-76
2022/06/23 08:52:32;;;;;;;;;;;37.20;62.10;;;;;;5042323;28;19920;-77
2022/06/23 08:55:00;;;;;;;;;;;37.30;62.10;;;;;;5106055;28;19928;-77
2022/06/23 08:57:32;;;;;;;;;;;37.40;61.90;;;;;;5106503;28;20281;-77
2022/06/23 09:00:29;;;;;;;;;;;37.40;61.70;;;;;;5073048;28;19927;-77
2022/06/23 09:03:00;;;;;;;;;;;37.50;60.60;;;;;;5080690;28;19920;-77
2022/06/23 09:05:39;;;;;;;;;;;37.40;59.80;;;;;;5073660;28;19928;-77
2022/06/23 09:08:29;;;;;;;;;;;37.50;60.00;;;;;;5090533;28;20051;-77
2022/06/23 09:11:16;;;;;;;;;;;37.40;59.80;;;;;;5089264;28;19924;-77
2022/06/23 09:14:13;;;;;;;;;;;37.40;59.90;;;;;;5056137;28;19927;-77
2022/06/23 09:17:00;;;;;;;;;;;37.40;58.80;;;;;;5086104;28;19967;-76
2022/06/23 09:19:28;;;;;;;;;;;37.40;59.00;;;;;;5074893;28;19931;-77
2022/06/23 09:22:10;;;;;;;;;;;37.30;58.70;;;;;;5072977;28;19931;-77
2022/06/23 09:24:44;;;;;;;;;;;37.40;58.80;;;;;;5104888;28;19975;-77
2022/06/23 09:27:30;;;;;;;;;;;37.40;59.40;;;;;;5088892;28;19924;-77
2022/06/23 09:30:01;;;;;;;;;;;37.40;59.40;;;;;;5072853;28;19920;-77
2022/06/23 09:32:32;;;;;;;;;;;37.50;59.00;;;;;;5071620;28;19927;-77
2022/06/23 09:35:08;;;;;;;;;;;37.50;58.90;;;;;;5090460;28;19928;-77
2022/06/23 09:37:54;;;;;;;;;;;37.40;58.90;;;;;;5072454;28;19979;-77
2022/06/23 09:40:31;;;;;;;;;;;37.30;58.80;;;;;;5085282;28;19931;-79
2022/06/23 09:43:01;;;;;;;;;;;37.30;58.70;;;;;;5094268;28;19923;-76
2022/06/23 09:45:35;;;;;;;;;;;37.20;58.80;;;;;;5096711;28;19920;-76
2022/06/23 09:48:16;;;;;;;;;;;37.10;61.50;;;;;;5079804;28;20381;-76
2022/06/23 09:50:44;;;;;;;;;;;36.90;62.10;;;;;;5096358;28;19924;-76
2022/06/23 09:53:30;;;;;;;;;;;36.50;61.70;;;;;;5096361;28;19926;-77
2022/06/23 09:56:17;;;;;;;;;;;36.40;62.00;;;;;;5096260;28;19919;-77
2022/06/23 09:58:50;;;;;;;;;;;36.50;61.60;;;;;;5078815;28;19927;-77
2022/06/23 10:01:21;;;;;;;;;;;36.60;61.20;;;;;;5096313;28;19923;-77
2022/06/23 10:04:14;;;;;;;;;;;36.70;61.10;;;;;;5079414;28;20373;-76
2022/06/23 10:06:51;;;;;;;;;;;36.80;60.90;;;;;;5095910;28;19987;-77
2022/06/23 10:09:18;;;;;;;;;;;36.70;60.40;;;;;;5114200;28;20223;-78
2022/06/23 10:11:51;;;;;;;;;;;36.70;60.40;;;;;;5095816;28;20357;-78
2022/06/23 10:14:37;;;;;;;;;;;36.60;60.50;;;;;;5112623;28;19924;-77
2022/06/23 10:17:10;;;;;;;;;;;36.40;60.20;;;;;;5095629;28;19919;-77
2022/06/23 10:19:49;;;;;;;;;;;36.30;59.30;;;;;;5095711;28;19942;-76
2022/06/23 10:22:19;;;;;;;;;;;36.30;59.60;;;;;;5078403;28;19923;-77
2022/06/23 10:24:53;;;;;;;;;;;36.30;58.80;;;;;;5095313;28;19927;-77
2022/06/23 10:27:29;;;;;;;;;;;36.40;58.70;;;;;;5095380;28;19923;-76
2022/06/23 10:30:03;;;;;;;;;;;36.30;58.80;;;;;;5092844;28;19985;-77
2022/06/23 10:33:03;;;;;;;;;;;36.20;59.10;;;;;;5095687;28;19923;-77
2022/06/23 10:35:31;;;;;;;;;;;36.40;58.70;;;;;;5111916;28;19920;-77
2022/06/23 10:38:18;;;;;;;;;;;36.30;58.70;;;;;;5095135;28;19920;-77
2022/06/23 10:41:01;;;;;;;;;;;36.30;58.20;;;;;;5102801;28;20015;-77
2022/06/23 10:43:29;;;;;;;;;;;36.30;59.00;;;;;;5078518;28;20667;-77
2022/06/23 10:46:00;;;;;;;;;;;36.40;59.20;;;;;;5095599;28;19920;-77
2022/06/23 10:48:27;;;;;;;;;;;36.20;58.40;;;;;;5095298;28;19924;-77
2022/06/23 10:51:21;;;;;;;;;;;35.90;58.40;;;;;;5112976;28;19963;-77
2022/06/23 10:54:06;;;;;;;;;;;36.00;59.10;;;;;;5068114;28;19923;-77
2022/06/23 10:56:33;;;;;;;;;;;36.00;58.30;;;;;;5077757;28;19977;-78
2022/06/23 10:59:00;;;;;;;;;;;36.20;58.20;;;;;;5112116;28;19923;-77
2022/06/23 11:01:31;;;;;;;;;;;36.20;57.70;;;;;;5093735;28;19926;-77
2022/06/23 11:04:08;;;;;;;;;;;36.20;57.40;;;;;;5111812;28;19924;-77
2022/06/23 11:06:50;;;;;;;;;;;36.30;56.70;;;;;;5112315;28;19990;-77
2022/06/23 11:09:36;;;;;;;;;;;36.30;56.20;;;;;;5093724;28;19927;-77
2022/06/23 11:12:16;;;;;;;;;;;36.40;57.30;;;;;;5092861;28;19919;-76
2022/06/23 11:15:02;;;;;;;;;;;36.20;56.10;;;;;;5074515;28;19920;-77
2022/06/23 11:17:48;;;;;;;;;;;35.90;56.00;;;;;;5073813;28;19920;-77
2022/06/23 11:20:25;;;;;;;;;;;35.90;56.40;;;;;;5056599;28;19963;-79
2022/06/23 11:22:58;;;;;;;;;;;35.90;56.30;;;;;;5089261;28;19928;-78
2022/06/23 11:25:44;;;;;;;;;;;36.00;56.60;;;;;;5091324;28;19977;-77
2022/06/23 11:28:28;;;;;;;;;;;36.20;56.40;;;;;;5056988;28;19920;-77
2022/06/23 11:31:14;;;;;;;;;;;36.30;56.70;;;;;;5056991;28;19930;-77
2022/06/23 11:33:47;;;;;;;;;;;36.40;56.70;;;;;;5091645;28;19959;-76
2022/06/23 11:36:30;;;;;;;;;;;36.40;56.60;;;;;;5072820;28;19928;-77
2022/06/23 11:39:12;;;;;;;;;;;36.60;57.30;;;;;;5056207;28;19927;-77
2022/06/23 11:41:40;;;;;;;;;;;36.60;56.70;;;;;;5056293;28;19931;-76
2022/06/23 11:44:13;;;;;;;;;;;36.50;56.40;;;;;;5062391;28;19924;-76
2022/06/23 11:46:56;;;;;;;;;;;36.50;56.60;;;;;;5086201;28;19934;-76
2022/06/23 11:49:42;;;;;;;;;;;36.50;56.70;;;;;;5070019;28;19926;-75
2022/06/23 11:52:12;;;;;;;;;;;36.60;57.60;;;;;;5117984;27;20381;-76
2022/06/23 11:54:52;;;;;;;;;;;36.70;57.70;;;;;;5092628;28;20288;-77
2022/06/23 11:57:38;;;;;;;;;;;36.60;57.80;;;;;;5109126;28;19920;-76
2022/06/23 12:00:07;;;;;;;;;;;36.50;58.30;;;;;;5071700;28;19989;-78
2022/06/23 12:02:51;;;;;;;;;;;36.40;59.00;;;;;;5095137;28;20435;-75
2022/06/23 12:05:32;;;;;;;;;;;36.30;59.50;;;;;;5087799;28;19927;-76
2022/06/23 12:08:00;;;;;;;;;;;36.30;59.70;;;;;;5089933;28;20026;-76
2022/06/23 12:10:30;;;;;;;;;;;36.50;59.90;;;;;;5086939;28;20309;-78
2022/06/23 12:12:58;;;;;;;;;;;36.50;60.10;;;;;;5093057;28;20289;-75
2022/06/23 12:15:31;;;;;;;;;;;36.40;60.00;;;;;;5070768;28;19930;-76
2022/06/23 12:18:02;;;;;;;;;;;36.30;60.10;;;;;;5087043;28;20002;-76
2022/06/23 12:20:45;;;;;;;;;;;36.20;60.00;;;;;;5078561;28;19927;-77
2022/06/23 12:23:30;;;;;;;;;;;36.20;60.70;;;;;;5109429;28;19959;-76
2022/06/23 12:26:13;;;;;;;;;;;36.10;61.50;;;;;;5088816;28;19919;-76
2022/06/23 12:28:49;;;;;;;;;;;36.10;60.90;;;;;;5056495;28;20631;-76
2022/06/23 12:31:35;;;;;;;;;;;36.00;61.70;;;;;;5092107;28;20282;-77
2022/06/23 12:34:29;;;;;;;;;;;35.80;62.30;;;;;;5089341;28;19931;-77
2022/06/23 12:37:16;;;;;;;;;;;35.70;62.80;;;;;;5069593;28;19920;-77
2022/06/23 12:39:48;;;;;;;;;;;35.60;62.90;;;;;;5086916;28;20081;-77
2022/06/23 12:42:28;;;;;;;;;;;35.50;63.40;;;;;;5092898;28;20015;-76
2022/06/23 12:45:08;;;;;;;;;;;35.60;63.80;;;;;;5053259;28;19930;-76
2022/06/23 12:47:38;;;;;;;;;;;35.60;64.70;;;;;;5068176;28;19923;-77
2022/06/23 12:50:12;;;;;;;;;;;35.50;65.40;;;;;;5086999;28;20301;-77
2022/06/23 12:52:46;;;;;;;;;;;35.40;65.70;;;;;;5080846;28;19974;-74
2022/06/23 12:55:32;;;;;;;;;;;35.40;66.20;;;;;;5062866;28;19920;-77
2022/06/23 12:58:00;;;;;;;;;;;35.30;66.70;;;;;;5075078;28;20014;-77
2022/06/23 13:00:48;;;;;;;;;;;35.30;66.90;;;;;;5088546;28;19930;-76
2022/06/23 13:03:28;;;;;;;;;;;35.20;66.90;;;;;;5071239;28;20389;-78
2022/06/23 13:06:01;;;;;;;;;;;35.00;67.20;;;;;;5091207;28;20346;-76
2022/06/23 13:08:34;;;;;;;;;;;35.00;67.60;;;;;;5105000;28;20290;-78
2022/06/23 13:11:05;;;;;;;;;;;35.00;67.60;;;;;;5090676;28;19938;-75
2022/06/23 13:13:42;;;;;;;;;;;35.10;68.10;;;;;;5071635;28;20280;-75
2022/06/23 13:16:16;;;;;;;;;;;35.20;68.10;;;;;;5076587;28;19931;-76
2022/06/23 13:19:05;;;;;;;;;;;35.30;67.40;;;;;;5078823;28;20675;-75
2022/06/23 13:21:34;;;;;;;;;;;35.20;66.60;;;;;;5096829;28;19982;-75
2022/06/23 13:24:14;;;;;;;;;;;35.10;66.60;;;;;;5096580;28;19947;-76
2022/06/23 13:26:57;;;;;;;;;;;35.00;66.60;;;;;;5080265;28;19984;-77
2022/06/23 13:29:34;;;;;;;;;;;34.90;66.80;;;;;;5080362;28;19942;-76
2022/06/23 13:32:08;;;;;;;;;;;35.00;66.60;;;;;;5096658;28;19961;-75
2022/06/23 13:34:40;;;;;;;;;;;35.10;68.50;;;;;;5079068;28;20352;-77
2022/06/23 13:37:12;;;;;;;;;;;35.00;69.70;;;;;;5079345;28;20014;-75
2022/06/23 13:39:47;;;;;;;;;;;35.00;71.00;;;;;;5096734;28;19931;-75
2022/06/23 13:42:21;;;;;;;;;;;35.10;73.20;;;;;;5113602;28;19924;-74
2022/06/23 13:45:07;;;;;;;;;;;35.10;73.20;;;;;;5079548;28;19926;-79
2022/06/23 13:47:39;;;;;;;;;;;35.10;71.20;;;;;;5079834;28;19923;-76
2022/06/23 13:50:10;;;;;;;;;;;35.10;72.40;;;;;;5096606;28;19923;-75
2022/06/23 13:52:45;;;;;;;;;;;34.80;71.50;;;;;;5079873;28;19927;-73
2022/06/23 13:55:25;;;;;;;;;;;34.80;71.80;;;;;;5079333;28;20289;-74
2022/06/23 13:58:10;;;;;;;;;;;34.70;72.20;;;;;;5096060;28;20327;-75
2022/06/23 14:00:41;;;;;;;;;;;34.70;72.30;;;;;;5079254;28;20389;-74
2022/06/23 14:03:19;;;;;;;;;;;34.60;71.60;;;;;;5079620;28;19966;-73
2022/06/23 14:05:53;;;;;;;;;;;34.60;72.20;;;;;;5079437;28;19924;-74
2022/06/23 14:08:25;;;;;;;;;;;34.40;72.60;;;;;;5096059;28;20285;-77
2022/06/23 14:11:01;;;;;;;;;;;34.40;71.90;;;;;;5096013;28;20041;-74
2022/06/23 14:13:34;;;;;;;;;;;34.50;72.00;;;;;;5079081;28;19919;-74
2022/06/23 14:16:03;;;;;;;;;;;34.50;72.10;;;;;;5079638;28;20456;-75
2022/06/23 14:18:33;;;;;;;;;;;34.40;72.40;;;;;;5095654;28;19938;-74
2022/06/23 14:21:12;;;;;;;;;;;34.30;72.60;;;;;;5062436;28;19974;-74
2022/06/23 14:23:46;;;;;;;;;;;34.20;73.00;;;;;;5096432;28;19938;-74
2022/06/23 14:26:26;;;;;;;;;;;34.20;73.00;;;;;;5095928;28;19923;-74
2022/06/23 14:29:01;;;;;;;;;;;34.10;73.50;;;;;;5077829;28;19989;-73
2022/06/23 14:31:38;;;;;;;;;;;34.10;74.30;;;;;;5113931;28;19920;-75
2022/06/23 14:34:20;;;;;;;;;;;34.10;74.60;;;;;;5095915;28;19923;-74
2022/06/23 14:36:57;;;;;;;;;;;34.10;74.60;;;;;;5113925;28;19923;-74
2022/06/23 14:39:51;;;;;;;;;;;34.30;74.50;;;;;;5078505;28;20289;-74
2022/06/23 14:42:25;;;;;;;;;;;34.30;74.30;;;;;;5081183;28;19927;-74
2022/06/23 14:45:02;;;;;;;;;;;34.20;74.10;;;;;;5076795;28;20008;-73
2022/06/23 14:47:39;;;;;;;;;;;34.10;74.10;;;;;;5094640;28;20317;-75
2022/06/23 14:50:19;;;;;;;;;;;34.00;74.20;;;;;;5077524;28;19919;-75
2022/06/23 14:53:05;;;;;;;;;;;34.10;74.30;;;;;;5095513;28;19973;-74
2022/06/23 14:55:38;;;;;;;;;;;34.00;74.50;;;;;;5111685;28;19920;-73
2022/06/23 14:58:06;;;;;;;;;;;33.90;74.60;;;;;;5095123;28;19924;-74
2022/06/23 15:00:47;;;;;;;;;;;33.80;74.80;;;;;;5095152;28;19919;-73
2022/06/23 15:03:42;;;;;;;;;;;33.90;75.10;;;;;;5078513;28;19927;-74
2022/06/23 15:06:16;;;;;;;;;;;33.90;75.00;;;;;;5094628;28;19924;-74
2022/06/23 15:08:47;;;;;;;;;;;33.80;74.40;;;;;;5077702;28;19923;-74
2022/06/23 15:11:19;;;;;;;;;;;33.80;74.70;;;;;;5076834;28;20377;-74
2022/06/23 15:13:47;;;;;;;;;;;33.80;74.80;;;;;;5094880;28;19934;-74